Time;durP1;ratioP1;P1;durP2;ratioP2;P2;SDS_P1;SDS_P2;PMS_P1;PMS_P2;Temp;Humidity;BMP_temperature;BMP_pressure;BME280_temperature;BME280_humidity;BME280_pressure;Samples;Min_cycle;Max_cycle;Signal;HPM_P1;HPM_P2
2022/01/23 00:01:09;;;;;;;4.38;2.67;;;;;;;20.09;nan;101316.94;20383138;28;101988;-67
2022/01/23 00:11:10;;;;;;;3.72;2.40;;;;;;;20.05;nan;101329.41;20388103;28;100515;-67
2022/01/23 00:21:10;;;;;;;3.47;2.50;;;;;;;20.01;nan;101333.16;20377573;28;101456;-68
2022/01/23 00:31:11;;;;;;;4.03;2.67;;;;;;;19.98;nan;101342.09;20384121;28;102064;-67
2022/01/23 00:41:11;;;;;;;4.40;2.88;;;;;;;19.96;nan;101345.75;20387200;28;100105;-67
2022/01/23 00:51:12;;;;;;;3.13;2.28;;;;;;;19.97;nan;101358.78;20385048;28;104086;-67
2022/01/23 01:01:13;;;;;;;3.67;2.38;;;;;;;19.96;nan;101366.78;20385945;28;103224;-67
2022/01/23 01:31:50;;;;;;;3.90;2.05;;;;;;;19.93;nan;101322.25;20394843;28;99499;-67
2022/01/23 01:41:52;;;;;;;3.85;2.22;;;;;;;19.90;nan;101320.63;20401805;28;98457;-67
2022/01/23 01:51:56;;;;;;;2.13;1.80;;;;;;;19.91;nan;101334.63;20395938;28;101006;-68
2022/01/23 02:12:29;;;;;;;3.95;1.80;;;;;;;19.87;nan;101322.59;20396507;28;100923;-67
2022/01/23 02:22:51;;;;;;;2.25;1.63;;;;;;;19.87;nan;101312.06;20395947;28;98986;-68
2022/01/23 02:54:06;;;;;;;2.20;1.63;;;;;;;19.84;nan;101324.44;20394604;28;99545;-67
2022/01/23 03:04:08;;;;;;;2.10;1.60;;;;;;;19.86;nan;101334.03;20394189;28;101638;-67
2022/01/23 03:34:18;;;;;;;1.48;1.38;;;;;;;19.82;nan;101330.69;20392988;28;100357;-67
2022/01/23 03:44:22;;;;;;;1.90;1.25;;;;;;;19.82;nan;101322.81;20393692;28;100059;-67
2022/01/23 03:54:24;;;;;;;1.70;1.40;;;;;;;19.81;nan;101306.22;20385930;28;99383;-67
2022/01/23 04:14:42;;;;;;;2.15;1.48;;;;;;;19.83;nan;101325.41;20384625;28;98873;-67
2022/01/23 05:05:38;;;;;;;2.05;1.30;;;;;;;19.85;nan;101343.72;20402659;28;100822;-67
2022/01/23 05:15:38;;;;;;;1.67;1.30;;;;;;;19.90;nan;101361.84;20401675;28;98617;-67
2022/01/23 05:25:40;;;;;;;1.08;0.98;;;;;;;19.99;nan;101374.47;20394879;28;101035;-67
2022/01/23 05:35:42;;;;;;;1.95;1.30;;;;;;;20.06;nan;101381.06;20400838;28;98245;-67
2022/01/23 05:45:42;;;;;;;1.83;1.23;;;;;;;20.11;nan;101402.69;20399543;28;101498;-67
2022/01/23 05:55:45;;;;;;;1.70;1.20;;;;;;;20.18;nan;101390.06;20403495;28;101720;-68
2022/01/23 06:05:46;;;;;;;1.47;1.10;;;;;;;20.29;nan;101403.41;20404608;28;100536;-68
2022/01/23 06:15:47;;;;;;;1.45;1.05;;;;;;;20.36;nan;101414.44;20401173;28;98827;-67
2022/01/23 06:25:49;;;;;;;1.45;1.20;;;;;;;20.42;nan;101429.88;20404792;28;102425;-68
2022/01/23 06:35:51;;;;;;;1.38;0.80;;;;;;;20.46;nan;101444.53;20404945;28;100372;-70
2022/01/23 06:45:51;;;;;;;4.75;1.25;;;;;;;20.54;nan;101444.09;20400348;28;100755;-67
2022/01/23 06:55:53;;;;;;;2.83;1.40;;;;;;;20.61;nan;101449.84;20403485;28;99280;-67
2022/01/23 07:05:54;;;;;;;1.80;1.40;;;;;;;20.72;nan;101449.28;20400263;28;99048;-66
2022/01/23 07:15:55;;;;;;;6.78;1.40;;;;;;;20.88;nan;101450.03;20397532;28;101729;-67
2022/01/23 07:25:58;;;;;;;1.52;1.42;;;;;;;21.05;nan;101445.56;20394691;28;101600;-68
2022/01/23 07:36:01;;;;;;;;;;;;;;;21.21;nan;101445.50;20409399;28;99677;-67
2022/01/23 07:46:02;;;;;;;15.77;2.10;;;;;;;21.32;nan;101464.09;20409478;28;100938;-66
2022/01/23 07:56:03;;;;;;;3.17;1.40;;;;;;;21.39;nan;101457.53;20406473;28;99086;-67
2022/01/23 08:06:05;;;;;;;6.55;1.42;;;;;;;21.46;nan;101465.06;20412245;28;103730;-67
2022/01/23 08:16:06;;;;;;;2.10;1.30;;;;;;;21.53;nan;101475.16;20425697;28;101275;-67
2022/01/23 08:26:09;;;;;;;2.58;1.10;;;;;;;21.59;nan;101477.44;20411541;28;103660;-66
2022/01/23 08:36:09;;;;;;;8.23;1.30;;;;;;;21.61;nan;101498.41;20406587;28;99009;-68
2022/01/23 08:46:13;;;;;;;6.78;1.75;;;;;;;21.65;nan;101480.63;20399487;28;100893;-67
2022/01/23 08:56:13;;;;;;;10.43;2.47;;;;;;;21.45;nan;101498.47;20406006;28;102578;-67
2022/01/23 09:06:15;;;;;;;7.10;2.45;;;;;;;21.38;nan;101503.25;20419544;28;101712;-67
2022/01/23 09:16:16;;;;;;;5.80;2.38;;;;;;;21.35;nan;101505.22;20421489;28;101445;-67
2022/01/23 09:26:21;;;;;;;7.57;2.70;;;;;;;21.31;nan;101519.53;20421684;28;99651;-66
2022/01/23 09:36:22;;;;;;;5.65;2.72;;;;;;;21.27;nan;101506.53;20421218;28;101184;-67
2022/01/23 09:46:24;;;;;;;6.38;2.90;;;;;;;21.24;nan;101493.56;20430803;28;98206;-67
2022/01/23 09:56:30;;;;;;;7.82;4.10;;;;;;;21.21;nan;101506.06;20437359;28;98412;-68
2022/01/23 10:06:31;;;;;;;9.48;4.28;;;;;;;21.18;nan;101509.75;20428469;28;100955;-67
2022/01/23 10:16:33;;;;;;;10.20;3.60;;;;;;;21.09;nan;101512.91;20424778;28;98370;-67
2022/01/23 10:26:46;;;;;;;18.73;3.87;;;;;;;21.11;nan;101501.34;20426611;28;97926;-67
2022/01/23 10:36:49;;;;;;;11.97;4.30;;;;;;;21.26;nan;101504.88;20437063;28;97651;-66
2022/01/23 10:57:21;;;;;;;9.68;3.80;;;;;;;21.45;nan;101490.56;20418952;28;99500;-66
2022/01/23 11:07:27;;;;;;;5.63;3.53;;;;;;;21.52;nan;101497.16;20426785;28;97459;-67
2022/01/23 11:17:28;;;;;;;6.78;3.78;;;;;;;21.56;nan;101496.06;20416828;28;100125;-67
2022/01/23 11:27:37;;;;;;;11.25;5.43;;;;;;;21.62;nan;101480.78;20414169;28;98575;-67
2022/01/23 11:37:48;;;;;;;18.38;6.93;;;;;;;21.67;nan;101487.47;20416285;28;100902;-66
2022/01/23 11:58:35;;;;;;;35.88;10.98;;;;;;;21.82;nan;101475.13;20405427;28;98909;-65
2022/01/23 12:08:36;;;;;;;47.25;10.90;;;;;;;21.98;nan;101461.81;20390789;28;101231;-66
2022/01/23 12:18:39;;;;;;;21.95;9.25;;;;;;;22.07;nan;101470.94;20404670;28;101911;-66
2022/01/23 12:28:43;;;;;;;22.30;8.07;;;;;;;22.30;nan;101458.03;20403343;28;98458;-67
2022/01/23 12:38:53;;;;;;;22.33;7.78;;;;;;;22.49;nan;101452.44;20403792;28;99391;-67
2022/01/23 12:48:55;;;;;;;23.67;7.68;;;;;;;22.62;nan;101445.41;20396955;28;99417;-67
2022/01/23 12:59:07;;;;;;;15.50;7.32;;;;;;;22.71;nan;101447.41;20401473;28;102005;-68
2022/01/23 13:09:46;;;;;;;14.57;6.53;;;;;;;22.79;nan;101453.97;20404241;28;103047;-68
2022/01/23 13:26:26;;;;;;;11.15;6.20;;;;;;;22.85;nan;101450.91;20419736;28;98569;-69
2022/01/23 13:30:26;;;;;;;10.50;5.22;;;;;;;22.88;nan;101453.38;20415147;28;101641;-69
2022/01/23 13:40:37;;;;;;;10.10;4.63;;;;;;;22.89;nan;101462.13;20416890;28;100732;-69
2022/01/23 14:01:15;;;;;;;9.03;4.57;;;;;;;22.78;nan;101466.34;20417791;28;98100;-68
2022/01/23 14:11:24;;;;;;;10.20;4.40;;;;;;;22.71;nan;101465.06;20408797;28;99374;-69
2022/01/23 14:21:26;;;;;;;16.13;4.55;;;;;;;22.66;nan;101468.00;20417108;28;102080;-69
2022/01/23 14:31:35;;;;;;;9.70;4.23;;;;;;;22.60;nan;101481.59;20410986;28;98462;-68
2022/01/23 14:41:39;;;;;;;10.05;3.63;;;;;;;22.55;nan;101494.28;20430550;28;101652;-68
2022/01/23 14:51:41;;;;;;;9.68;3.55;;;;;;;22.46;nan;101501.00;20422744;28;97289;-68
2022/01/23 15:01:46;;;;;;;7.60;3.65;;;;;;;22.40;nan;101514.59;20416386;28;100252;-67
2022/01/23 15:11:47;;;;;;;7.82;3.63;;;;;;;22.31;nan;101515.16;20424494;28;102417;-69
2022/01/23 15:21:48;;;;;;;6.90;3.50;;;;;;;22.23;nan;101532.31;20411377;28;97627;-68
2022/01/23 15:31:48;;;;;;;8.00;3.58;;;;;;;22.17;nan;101535.34;20400948;28;99194;-69
2022/01/23 15:41:50;;;;;;;12.70;3.67;;;;;;;22.11;nan;101556.00;20390628;28;102902;-66
2022/01/23 15:51:51;;;;;;;8.60;3.35;;;;;;;22.08;nan;101559.66;20400851;28;97980;-67
2022/01/23 16:01:51;;;;;;;11.30;4.00;;;;;;;22.09;nan;101571.91;20400669;28;98814;-65
2022/01/23 16:11:52;;;;;;;16.02;12.52;;;;;;;22.09;nan;101569.28;20408584;28;98939;-66
2022/01/23 16:21:55;;;;;;;27.75;19.40;;;;;;;22.09;nan;101576.34;20403973;28;101193;-66
2022/01/23 16:31:59;;;;;;;21.73;16.65;;;;;;;22.01;nan;101584.75;20408570;28;98289;-67
2022/01/23 16:42:00;;;;;;;22.08;14.93;;;;;;;21.95;nan;101593.00;20407205;28;99639;-67
2022/01/23 16:52:00;;;;;;;23.10;13.95;;;;;;;21.95;nan;101599.16;20406120;28;102360;-67
2022/01/23 17:02:04;;;;;;;18.10;13.18;;;;;;;21.92;nan;101601.97;20419876;28;98335;-68
2022/01/23 17:12:06;;;;;;;17.10;12.60;;;;;;;21.88;nan;101611.03;20420466;28;102498;-67
2022/01/23 17:22:11;;;;;;;15.50;11.73;;;;;;;21.85;nan;101619.97;20419407;28;100346;-66
2022/01/23 17:32:14;;;;;;;15.70;11.80;;;;;;;21.83;nan;101627.13;20417361;28;99637;-65
2022/01/23 17:42:16;;;;;;;14.75;10.93;;;;;;;21.80;nan;101640.50;20416935;28;102984;-67
2022/01/23 17:52:16;;;;;;;15.93;10.50;;;;;;;21.78;nan;101646.81;20421518;28;99479;-67
2022/01/23 18:02:18;;;;;;;12.73;10.07;;;;;;;21.77;nan;101671.47;20414626;28;101788;-66
2022/01/23 18:12:20;;;;;;;15.00;10.00;;;;;;;21.69;nan;101670.13;20423486;28;97560;-66
2022/01/23 18:22:22;;;;;;;12.55;9.40;;;;;;;21.66;nan;101686.13;20423301;28;97403;-66
2022/01/23 18:32:22;;;;;;;11.52;8.88;;;;;;;21.64;nan;101693.28;20427693;28;97861;-67
2022/01/23 18:42:23;;;;;;;12.43;9.10;;;;;;;21.62;nan;101710.09;20419227;28;98359;-66
2022/01/23 18:52:26;;;;;;;12.32;8.00;;;;;;;21.58;nan;101723.47;20419140;28;101367;-67
2022/01/23 19:02:32;;;;;;;11.80;8.63;;;;;;;21.57;nan;101734.97;20417699;28;99215;-68
2022/01/23 19:12:38;;;;;;;10.43;7.18;;;;;;;21.53;nan;101740.47;20417083;28;98415;-68
2022/01/23 19:22:39;;;;;;;15.07;7.50;;;;;;;21.53;nan;101759.78;20391447;28;99047;-69
2022/01/23 19:32:39;;;;;;;9.15;7.10;;;;;;;21.57;nan;101787.69;20372991;28;101006;-71
2022/01/23 19:43:13;;;;;;;11.90;7.00;;;;;;;21.54;nan;101792.22;20368399;28;103292;-68
2022/01/23 19:53:03;;;;;;;16.17;7.35;;;;;;;21.44;nan;101794.53;20374468;28;99941;-68
2022/01/23 20:03:04;;;;;;;16.50;7.40;;;;;;;21.24;nan;101808.84;20370910;28;98845;-69
2022/01/23 20:13:04;;;;;;;14.77;7.43;;;;;;;21.26;nan;101817.50;20428012;28;97249;-68
2022/01/23 20:23:06;;;;;;;12.83;6.83;;;;;;;21.22;nan;101852.84;20422388;28;97742;-67
2022/01/23 20:33:06;;;;;;;10.10;6.18;;;;;;;21.18;nan;101856.56;20426999;28;97807;-67
2022/01/23 20:43:07;;;;;;;9.30;6.25;;;;;;;21.13;nan;101842.81;20429442;28;99027;-68
2022/01/23 20:53:48;;;;;;;9.60;6.03;;;;;;;21.04;nan;101849.41;20414212;28;99879;-68
2022/01/23 21:03:29;;;;;;;10.30;6.00;;;;;;;20.98;nan;101860.28;20409854;28;98621;-67
2022/01/23 21:13:34;;;;;;;10.52;6.18;;;;;;;20.91;nan;101867.63;20420018;28;97482;-69
2022/01/23 21:28:35;;;;;;;8.45;5.55;;;;;;;20.86;nan;101878.44;20404704;28;99258;-69
2022/01/23 21:44:17;;;;;;;8.30;5.15;;;;;;;20.77;nan;101892.91;20415785;28;98981;-69
2022/01/23 21:54:17;;;;;;;8.68;5.35;;;;;;;20.72;nan;101902.00;20431759;28;101280;-70
2022/01/23 22:04:18;;;;;;;8.52;5.45;;;;;;;20.67;nan;101904.81;20429943;28;98152;-68
2022/01/23 22:34:58;;;;;;;8.23;4.57;;;;;;;20.53;nan;101908.16;20425063;28;98720;-68
2022/01/23 22:55:19;;;;;;;6.88;4.75;;;;;;;20.47;nan;101961.94;20391549;28;102696;-68
2022/01/23 23:05:22;;;;;;;6.35;4.20;;;;;;;20.40;nan;101946.53;20400205;28;98061;-68
2022/01/23 23:15:31;;;;;;;6.93;4.28;;;;;;;20.35;nan;101954.66;20413781;28;101102;-68
2022/01/23 23:25:31;;;;;;;6.57;4.30;;;;;;;20.31;nan;101968.88;20398758;28;99552;-68
2022/01/23 23:35:32;;;;;;;5.50;3.95;;;;;;;20.26;nan;101969.13;20410377;28;109536;-68
2022/01/23 23:45:34;;;;;;;5.75;3.97;;;;;;;20.24;nan;101983.28;20410810;28;102566;-68
2022/01/23 23:55:34;;;;;;;7.00;4.15;;;;;;;20.19;nan;101982.63;20405363;28;98691;-68
